Time;durP1;ratioP1;P1;durP2;ratioP2;P2;SDS_P1;SDS_P2;PMS_P1;PMS_P2;Temp;Humidity;BMP_temperature;BMP_pressure;BME280_temperature;BME280_humidity;BME280_pressure;Samples;Min_cycle;Max_cycle;Signal;HPM_P1;HPM_P2
2022/11/20 00:00:11;;;;;;;20.73;17.77;;;7.00;91.80;;;;;;5078349;28;20856;-68
2022/11/20 00:02:38;;;;;;;25.20;17.87;;;6.90;91.40;;;;;;5075956;28;20981;-68
2022/11/20 00:05:08;;;;;;;21.87;17.97;;;6.90;91.40;;;;;;5076622;28;20447;-68
2022/11/20 00:07:34;;;;;;;22.60;17.10;;;6.90;91.50;;;;;;5076087;28;20455;-68
2022/11/20 00:10:01;;;;;;;24.17;16.80;;;6.90;91.60;;;;;;5075739;28;20439;-68
2022/11/20 00:12:28;;;;;;;20.10;14.70;;;6.90;91.60;;;;;;5075810;28;20463;-68
2022/11/20 00:14:55;;;;;;;21.20;16.93;;;6.90;91.50;;;;;;5076560;28;20854;-68
2022/11/20 00:17:21;;;;;;;18.67;15.53;;;6.90;91.50;;;;;;5075826;28;20956;-68
2022/11/20 00:19:48;;;;;;;17.97;14.50;;;6.90;91.50;;;;;;5075606;28;20487;-68
2022/11/20 00:22:16;;;;;;;22.47;17.97;;;6.90;91.50;;;;;;5075755;28;20471;-68
2022/11/20 00:24:43;;;;;;;20.00;16.60;;;6.90;91.50;;;;;;5075677;28;20428;-68
2022/11/20 00:27:09;;;;;;;17.40;14.80;;;6.90;91.60;;;;;;5075622;28;20435;-68
2022/11/20 00:29:36;;;;;;;20.70;16.90;;;6.90;91.70;;;;;;5075511;28;20447;-68
2022/11/20 00:32:03;;;;;;;19.47;16.83;;;6.90;91.80;;;;;;5075414;28;20935;-68
2022/11/20 00:34:30;;;;;;;17.67;13.70;;;6.90;91.70;;;;;;5076341;28;20460;-68
2022/11/20 00:36:56;;;;;;;21.90;17.77;;;6.90;91.70;;;;;;5076228;28;20455;-69
2022/11/20 00:39:24;;;;;;;20.37;16.70;;;6.90;91.90;;;;;;5075310;28;20487;-67
2022/11/20 00:41:51;;;;;;;20.40;15.90;;;6.90;91.80;;;;;;5074733;28;20479;-67
2022/11/20 00:44:18;;;;;;;20.97;16.20;;;6.90;91.90;;;;;;5075286;28;20435;-67
2022/11/20 00:46:44;;;;;;;16.37;14.13;;;6.80;91.90;;;;;;5075542;28;20801;-67
2022/11/20 00:49:11;;;;;;;17.10;15.27;;;6.80;92.00;;;;;;5075429;28;20447;-67
2022/11/20 00:51:38;;;;;;;22.60;16.97;;;6.90;92.10;;;;;;5075172;28;20448;-67
2022/11/20 00:54:05;;;;;;;26.43;18.77;;;6.90;92.00;;;;;;5075023;28;20467;-67
2022/11/20 00:56:33;;;;;;;24.80;18.00;;;6.90;92.00;;;;;;5074717;28;20465;-67
2022/11/20 00:59:01;;;;;;;28.53;21.10;;;6.90;92.00;;;;;;5074680;28;20490;-68
2022/11/20 01:01:29;;;;;;;24.80;18.40;;;6.90;92.10;;;;;;5074714;28;20827;-67
2022/11/20 01:03:57;;;;;;;23.37;17.73;;;6.80;92.10;;;;;;5074752;28;20479;-67
2022/11/20 01:06:26;;;;;;;23.47;17.43;;;6.90;92.10;;;;;;5074724;28;20447;-67
2022/11/20 01:08:54;;;;;;;23.60;16.77;;;6.90;92.00;;;;;;5074634;28;20452;-67
2022/11/20 01:11:23;;;;;;;22.63;17.40;;;6.90;92.00;;;;;;5074630;28;20528;-67
2022/11/20 01:13:52;;;;;;;20.70;16.00;;;6.90;92.10;;;;;;5074932;28;20468;-67
2022/11/20 01:16:23;;;;;;;20.80;14.73;;;6.80;92.10;;;;;;5074428;28;20452;-67
2022/11/20 01:18:52;;;;;;;20.10;16.47;;;6.80;91.90;;;;;;5074323;28;20475;-67
2022/11/20 01:21:23;;;;;;;21.50;17.03;;;6.80;91.90;;;;;;5074648;28;20866;-68
2022/11/20 01:23:51;;;;;;;20.23;17.00;;;6.80;91.90;;;;;;5074495;28;20477;-68
2022/11/20 01:26:21;;;;;;;20.83;17.27;;;6.80;91.90;;;;;;5074182;28;20454;-68
2022/11/20 01:28:48;;;;;;;18.60;14.33;;;6.80;92.00;;;;;;5074477;28;20446;-68
2022/11/20 01:31:19;;;;;;;20.00;15.03;;;6.70;92.00;;;;;;5074520;28;20485;-68
2022/11/20 01:33:48;;;;;;;18.80;15.27;;;6.80;92.30;;;;;;5074322;28;20466;-68
2022/11/20 01:36:16;;;;;;;16.87;14.53;;;6.80;92.40;;;;;;5073931;28;20474;-68
2022/11/20 01:38:43;;;;;;;19.07;15.30;;;6.70;92.50;;;;;;5074023;28;20487;-68
2022/11/20 01:41:11;;;;;;;20.23;15.10;;;6.80;92.60;;;;;;5074160;28;20447;-68
2022/11/20 01:43:57;;;;;;;23.00;16.77;;;6.80;92.60;;;;;;5073701;28;20464;-68
2022/11/20 01:46:26;;;;;;;20.20;16.17;;;6.80;92.40;;;;;;5073886;28;20485;-68
2022/11/20 01:48:57;;;;;;;18.10;15.40;;;6.80;92.50;;;;;;5074033;28;20454;-68
2022/11/20 01:51:31;;;;;;;18.27;15.20;;;6.80;92.60;;;;;;5074987;28;20440;-68
2022/11/20 01:54:01;;;;;;;19.97;14.77;;;6.80;92.60;;;;;;5073807;28;21060;-68
2022/11/20 01:56:29;;;;;;;20.70;17.50;;;6.80;92.60;;;;;;5074002;28;20432;-68
2022/11/20 01:59:00;;;;;;;20.17;16.47;;;6.80;92.60;;;;;;5073651;28;20490;-68
2022/11/20 02:01:28;;;;;;;20.17;16.87;;;6.80;92.50;;;;;;5074218;28;20431;-68
2022/11/20 02:03:55;;;;;;;20.23;16.73;;;6.80;92.50;;;;;;5073877;28;20474;-68
2022/11/20 02:06:25;;;;;;;26.30;15.03;;;6.80;92.50;;;;;;5073565;28;20838;-68
2022/11/20 02:08:53;;;;;;;23.17;17.17;;;6.80;92.60;;;;;;5073734;28;20435;-68
2022/11/20 02:11:20;;;;;;;20.70;16.30;;;6.80;93.10;;;;;;5074351;28;20442;-68
2022/11/20 02:13:46;;;;;;;21.10;16.40;;;6.80;92.80;;;;;;5073907;28;20467;-68
2022/11/20 02:16:17;;;;;;;22.10;17.83;;;6.80;92.80;;;;;;5073963;28;20443;-68
2022/11/20 02:18:46;;;;;;;19.50;15.90;;;6.80;92.80;;;;;;5074245;28;20506;-68
2022/11/20 02:21:24;;;;;;;16.53;14.40;;;6.80;92.80;;;;;;5074048;28;20467;-68
2022/11/20 02:24:02;;;;;;;18.10;15.63;;;6.80;92.80;;;;;;5073390;28;20474;-68
2022/11/20 02:26:31;;;;;;;19.30;15.37;;;6.80;93.00;;;;;;5073811;28;20439;-68
2022/11/20 02:29:00;;;;;;;22.03;17.20;;;6.80;93.00;;;;;;5073411;28;20451;-68
2022/11/20 02:31:27;;;;;;;21.83;17.53;;;6.80;93.10;;;;;;5073944;28;20872;-68
2022/11/20 02:33:56;;;;;;;21.10;17.20;;;6.70;93.20;;;;;;5073705;28;20465;-68
2022/11/20 02:36:24;;;;;;;18.20;15.43;;;6.70;93.70;;;;;;5073638;28;20465;-68
2022/11/20 02:38:51;;;;;;;17.87;15.57;;;6.70;93.40;;;;;;5074203;28;20479;-68
2022/11/20 02:41:19;;;;;;;21.00;15.97;;;6.70;93.40;;;;;;5074156;28;20448;-68
2022/11/20 02:43:46;;;;;;;19.17;15.07;;;6.70;93.40;;;;;;5073809;28;20478;-68
2022/11/20 02:46:13;;;;;;;20.20;16.60;;;6.70;93.50;;;;;;5074841;28;20428;-68
2022/11/20 02:48:39;;;;;;;22.00;15.40;;;6.70;93.60;;;;;;5073764;28;20812;-68
2022/11/20 02:51:06;;;;;;;19.63;15.10;;;6.70;93.60;;;;;;5074138;28;20451;-68
2022/11/20 02:53:34;;;;;;;18.03;14.73;;;6.70;93.70;;;;;;5074772;28;20474;-68
2022/11/20 02:56:01;;;;;;;16.10;14.40;;;6.70;93.70;;;;;;5074699;28;20440;-68
2022/11/20 02:58:29;;;;;;;21.33;15.90;;;6.70;93.80;;;;;;5074806;28;20824;-67
2022/11/20 03:00:56;;;;;;;18.77;15.93;;;6.70;93.90;;;;;;5075756;28;20485;-67
2022/11/20 03:03:22;;;;;;;21.67;16.23;;;6.70;94.00;;;;;;5074392;28;21017;-68
2022/11/20 03:05:49;;;;;;;21.70;16.70;;;6.70;93.90;;;;;;5078120;28;20445;-68
2022/11/20 03:08:16;;;;;;;21.33;16.40;;;6.70;93.70;;;;;;5077853;28;20445;-68
2022/11/20 03:10:43;;;;;;;24.50;18.07;;;6.70;93.60;;;;;;5077899;28;20443;-68
2022/11/20 03:13:10;;;;;;;25.67;16.33;;;6.60;93.50;;;;;;5078965;28;20459;-68
2022/11/20 03:15:38;;;;;;;18.40;15.67;;;6.60;93.30;;;;;;5078281;28;20451;-68
2022/11/20 03:18:05;;;;;;;21.30;17.40;;;6.60;93.30;;;;;;5078025;28;20451;-68
2022/11/20 03:20:34;;;;;;;18.67;15.37;;;6.50;93.30;;;;;;5077684;28;20578;-68
2022/11/20 03:23:01;;;;;;;19.83;15.63;;;6.50;93.30;;;;;;5080260;28;20463;-68
2022/11/20 03:25:28;;;;;;;19.17;15.47;;;6.50;93.30;;;;;;5077709;28;20457;-68
2022/11/20 03:27:55;;;;;;;20.07;15.87;;;6.50;93.10;;;;;;5060446;28;20450;-68
2022/11/20 03:30:22;;;;;;;20.63;15.60;;;6.40;92.90;;;;;;5077855;28;20446;-68
2022/11/20 03:32:54;;;;;;;20.03;14.97;;;6.40;92.80;;;;;;5079284;28;20477;-68
2022/11/20 03:35:21;;;;;;;17.93;14.40;;;6.40;92.60;;;;;;5077870;28;20903;-68
2022/11/20 03:37:48;;;;;;;17.60;15.03;;;6.30;92.50;;;;;;5078575;28;20463;-68
2022/11/20 03:40:15;;;;;;;16.93;13.27;;;6.30;92.60;;;;;;5077696;28;20513;-68
2022/11/20 03:42:47;;;;;;;18.50;15.30;;;6.20;92.50;;;;;;5079080;28;20466;-68
2022/11/20 03:45:15;;;;;;;19.87;15.67;;;6.10;92.70;;;;;;5079117;28;20434;-68
2022/11/20 03:47:42;;;;;;;20.90;16.90;;;6.10;93.00;;;;;;5079574;28;20451;-68
2022/11/20 03:50:12;;;;;;;17.83;15.20;;;6.10;93.30;;;;;;5079045;28;20465;-68
2022/11/20 03:52:39;;;;;;;17.60;13.77;;;6.10;93.40;;;;;;5079863;28;20482;-68
2022/11/20 03:55:06;;;;;;;20.83;14.73;;;6.10;93.50;;;;;;5079420;28;20457;-68
2022/11/20 03:57:33;;;;;;;18.67;14.30;;;6.10;93.50;;;;;;5078942;28;20463;-68
2022/11/20 04:00:00;;;;;;;17.97;14.83;;;6.10;93.50;;;;;;5079243;28;20481;-68
2022/11/20 04:02:26;;;;;;;18.20;14.53;;;6.10;93.50;;;;;;5079748;28;20475;-68
2022/11/20 04:04:53;;;;;;;21.50;16.13;;;6.10;93.50;;;;;;5080900;28;20817;-68
2022/11/20 04:07:21;;;;;;;21.57;15.03;;;6.10;93.50;;;;;;5080217;28;20431;-68
2022/11/20 04:09:48;;;;;;;17.80;14.27;;;6.10;93.40;;;;;;5080060;28;20451;-68
2022/11/20 04:12:14;;;;;;;20.43;16.73;;;6.10;93.40;;;;;;5081077;28;20506;-68
2022/11/20 04:14:41;;;;;;;20.73;15.23;;;6.10;93.40;;;;;;5079302;28;20931;-68
2022/11/20 04:17:08;;;;;;;24.70;16.13;;;6.10;93.50;;;;;;5080464;28;20464;-67
2022/11/20 04:19:35;;;;;;;17.40;13.90;;;6.20;93.50;;;;;;5081207;28;20489;-68
2022/11/20 04:22:01;;;;;;;20.00;16.57;;;6.20;93.40;;;;;;5082099;28;20457;-68
2022/11/20 04:24:29;;;;;;;20.30;16.90;;;6.20;93.40;;;;;;5080938;28;20448;-68
2022/11/20 04:26:56;;;;;;;19.70;15.80;;;6.20;93.30;;;;;;5079604;28;20510;-68
2022/11/20 04:29:23;;;;;;;19.30;15.83;;;6.10;93.30;;;;;;5080557;28;20539;-68
2022/11/20 04:31:50;;;;;;;22.63;15.93;;;6.10;93.40;;;;;;5082447;28;20462;-68
2022/11/20 04:34:17;;;;;;;18.97;14.60;;;6.20;93.40;;;;;;5081467;28;20432;-68
2022/11/20 04:36:43;;;;;;;22.03;16.57;;;6.20;93.50;;;;;;5082092;28;20537;-68
2022/11/20 04:39:15;;;;;;;21.07;16.50;;;6.20;93.50;;;;;;5081733;28;20945;-67
2022/11/20 04:41:43;;;;;;;19.27;14.70;;;6.20;93.50;;;;;;5084238;28;20473;-67
2022/11/20 04:44:10;;;;;;;21.03;15.90;;;6.20;93.50;;;;;;5084348;28;20435;-68
2022/11/20 04:46:39;;;;;;;18.23;14.50;;;6.20;93.50;;;;;;5085438;28;20450;-68
2022/11/20 04:49:06;;;;;;;21.20;16.47;;;6.20;93.50;;;;;;5089408;28;20459;-68
2022/11/20 04:51:33;;;;;;;20.10;15.10;;;6.30;93.80;;;;;;5092356;28;20444;-68
2022/11/20 04:54:00;;;;;;;18.87;15.60;;;6.20;93.30;;;;;;5093973;28;20473;-68
2022/11/20 04:56:26;;;;;;;17.57;14.83;;;6.20;93.20;;;;;;5094210;28;20457;-68
2022/11/20 04:58:55;;;;;;;21.50;15.97;;;6.20;93.20;;;;;;5093875;28;20466;-68
2022/11/20 05:01:23;;;;;;;18.77;15.03;;;6.20;93.10;;;;;;5095445;28;20482;-68
2022/11/20 05:03:50;;;;;;;23.80;16.83;;;6.20;93.10;;;;;;5095353;28;20478;-68
2022/11/20 05:06:19;;;;;;;20.80;16.20;;;6.20;93.10;;;;;;5095168;28;20445;-68
2022/11/20 05:08:46;;;;;;;20.77;16.23;;;6.20;93.10;;;;;;5095103;28;20431;-68
2022/11/20 05:11:14;;;;;;;21.27;15.17;;;6.20;93.10;;;;;;5093262;28;20445;-68
2022/11/20 05:13:41;;;;;;;21.43;16.70;;;6.20;93.40;;;;;;5092785;28;20459;-68
2022/11/20 05:16:11;;;;;;;20.40;15.00;;;6.20;93.30;;;;;;5091998;28;20450;-68
2022/11/20 05:18:39;;;;;;;21.23;17.17;;;6.20;93.30;;;;;;5088959;28;20936;-68
2022/11/20 05:21:06;;;;;;;19.73;15.90;;;6.20;93.40;;;;;;5084812;28;20479;-68
2022/11/20 05:23:34;;;;;;;22.60;16.83;;;6.20;93.40;;;;;;5082894;28;20470;-68
2022/11/20 05:26:00;;;;;;;19.70;14.30;;;6.20;93.30;;;;;;5085516;28;20432;-68
2022/11/20 05:28:28;;;;;;;20.77;15.67;;;6.20;93.40;;;;;;5084588;28;20449;-68
2022/11/20 05:30:55;;;;;;;21.50;16.67;;;6.20;93.30;;;;;;5086068;28;20444;-68
2022/11/20 05:33:24;;;;;;;22.30;16.43;;;6.20;93.30;;;;;;5089009;28;20477;-68
2022/11/20 05:35:51;;;;;;;19.87;15.17;;;6.10;93.30;;;;;;5089747;28;20511;-68
2022/11/20 05:38:17;;;;;;;21.90;15.80;;;6.10;93.20;;;;;;5089455;28;20454;-68
2022/11/20 05:40:44;;;;;;;22.97;16.73;;;6.10;93.00;;;;;;5086342;28;20479;-68
2022/11/20 05:43:11;;;;;;;21.83;16.70;;;6.10;92.90;;;;;;5081638;28;20996;-68
2022/11/20 05:45:38;;;;;;;19.10;16.30;;;6.10;92.90;;;;;;5077027;28;20518;-68
2022/11/20 05:48:05;;;;;;;24.37;16.63;;;6.10;92.90;;;;;;5074936;28;20453;-68
2022/11/20 05:50:33;;;;;;;20.87;17.30;;;6.10;92.80;;;;;;5074102;28;20434;-68
2022/11/20 05:53:00;;;;;;;24.83;17.83;;;6.10;92.90;;;;;;5073656;28;20473;-68
2022/11/20 05:55:26;;;;;;;23.20;15.47;;;6.10;93.00;;;;;;5073629;28;20484;-68
2022/11/20 05:57:54;;;;;;;20.03;15.67;;;6.10;93.10;;;;;;5073414;28;20929;-68
2022/11/20 06:00:21;;;;;;;20.70;15.67;;;6.10;93.20;;;;;;5073820;28;20511;-68
2022/11/20 06:02:48;;;;;;;19.60;15.20;;;6.10;93.20;;;;;;5074163;28;20479;-67
2022/11/20 06:05:15;;;;;;;21.00;15.93;;;6.10;93.20;;;;;;5073621;28;20945;-67
2022/11/20 06:07:46;;;;;;;16.83;14.13;;;6.10;93.20;;;;;;5073562;28;20451;-68
2022/11/20 06:10:12;;;;;;;18.40;15.03;;;6.10;93.20;;;;;;5073612;28;20430;-68
2022/11/20 06:12:39;;;;;;;19.77;16.47;;;6.10;93.20;;;;;;5073194;28;20472;-68
2022/11/20 06:15:07;;;;;;;19.87;15.63;;;6.10;93.20;;;;;;5073113;28;20434;-68
2022/11/20 06:17:34;;;;;;;18.47;14.93;;;6.00;93.20;;;;;;5073191;28;20992;-68
2022/11/20 06:20:00;;;;;;;19.50;16.00;;;6.00;93.30;;;;;;5073297;28;20481;-68
2022/11/20 06:22:27;;;;;;;20.60;14.60;;;6.00;93.30;;;;;;5073317;28;20492;-68
2022/11/20 06:24:55;;;;;;;16.50;14.20;;;6.00;93.20;;;;;;5073402;28;20442;-68
2022/11/20 06:27:22;;;;;;;18.30;15.13;;;6.00;93.30;;;;;;5073220;28;20941;-68
2022/11/20 06:29:48;;;;;;;19.93;15.33;;;6.00;93.30;;;;;;5073173;28;20459;-68
2022/11/20 06:32:15;;;;;;;17.70;13.97;;;5.90;93.10;;;;;;5072797;28;20466;-68
2022/11/20 06:34:42;;;;;;;20.67;15.87;;;5.90;93.10;;;;;;5073223;28;20451;-68
2022/11/20 06:37:08;;;;;;;20.27;16.17;;;5.90;93.10;;;;;;5073061;28;20460;-68
2022/11/20 06:39:35;;;;;;;22.20;16.17;;;5.90;93.20;;;;;;5075689;28;21018;-68
2022/11/20 06:42:03;;;;;;;19.23;15.43;;;5.80;93.20;;;;;;5077185;28;20465;-68
2022/11/20 06:44:30;;;;;;;21.23;15.70;;;5.90;93.20;;;;;;5077306;28;20798;-68
2022/11/20 06:46:57;;;;;;;18.33;14.87;;;5.80;93.00;;;;;;5077153;28;20435;-68
2022/11/20 06:49:23;;;;;;;21.37;16.43;;;5.70;92.70;;;;;;5076882;28;20937;-68
2022/11/20 06:51:50;;;;;;;25.07;17.10;;;5.70;92.70;;;;;;5076987;28;20445;-68
2022/11/20 06:54:17;;;;;;;20.17;15.70;;;5.70;93.00;;;;;;5076985;28;20453;-68
2022/11/20 06:56:47;;;;;;;20.70;17.97;;;5.70;93.20;;;;;;5077050;28;20455;-68
2022/11/20 06:59:15;;;;;;;23.93;17.60;;;5.70;93.20;;;;;;5076867;28;20430;-68
2022/11/20 07:01:42;;;;;;;22.57;17.97;;;5.60;93.20;;;;;;5076553;28;21005;-68
2022/11/20 07:04:09;;;;;;;25.80;19.77;;;5.70;93.10;;;;;;5076903;28;20441;-68
2022/11/20 07:06:36;;;;;;;29.43;19.40;;;5.70;93.00;;;;;;5076784;28;20449;-68
2022/11/20 07:09:03;;;;;;;24.67;18.80;;;5.70;93.00;;;;;;5076654;28;20437;-68
2022/11/20 07:11:29;;;;;;;25.83;18.30;;;5.70;93.10;;;;;;5076511;28;20442;-68
2022/11/20 07:13:58;;;;;;;26.53;19.63;;;5.70;92.90;;;;;;5076237;28;20870;-68
2022/11/20 07:16:26;;;;;;;25.00;19.57;;;5.70;92.90;;;;;;5076467;28;20481;-68
2022/11/20 07:18:53;;;;;;;24.27;19.30;;;5.70;92.70;;;;;;5076565;28;20456;-68
2022/11/20 07:21:19;;;;;;;24.30;19.40;;;5.70;92.60;;;;;;5076127;28;21019;-68
2022/11/20 07:23:46;;;;;;;21.07;18.37;;;5.70;92.70;;;;;;5076405;28;20465;-68
2022/11/20 07:26:13;;;;;;;27.90;19.70;;;5.80;92.90;;;;;;5076471;28;20432;-68
2022/11/20 07:28:40;;;;;;;23.37;17.67;;;5.80;92.90;;;;;;5076596;28;20442;-68
2022/11/20 07:31:07;;;;;;;22.60;18.10;;;5.80;92.90;;;;;;5076789;28;20810;-68
2022/11/20 07:33:35;;;;;;;23.27;17.40;;;5.80;92.90;;;;;;5076280;28;20466;-68
2022/11/20 07:36:02;;;;;;;21.77;17.90;;;5.80;92.90;;;;;;5076015;28;20458;-68
2022/11/20 07:38:29;;;;;;;22.13;18.53;;;5.90;92.90;;;;;;5076356;28;20433;-68
2022/11/20 07:40:57;;;;;;;23.77;17.47;;;5.90;92.90;;;;;;5076140;28;20470;-68
2022/11/20 07:43:24;;;;;;;27.40;19.00;;;5.90;92.90;;;;;;5076023;28;20500;-68
2022/11/20 07:45:50;;;;;;;24.00;19.27;;;5.90;92.80;;;;;;5076073;28;20540;-68
2022/11/20 07:48:17;;;;;;;21.80;16.77;;;6.00;92.80;;;;;;5076018;28;20453;-68
2022/11/20 07:50:45;;;;;;;19.10;16.83;;;6.00;92.60;;;;;;5076096;28;20445;-68
2022/11/20 07:53:12;;;;;;;26.43;19.53;;;6.00;92.50;;;;;;5075979;28;20473;-68
2022/11/20 07:55:39;;;;;;;21.90;18.00;;;6.00;92.50;;;;;;5075549;28;20941;-68
2022/11/20 07:58:05;;;;;;;26.20;18.10;;;6.00;92.50;;;;;;5076217;28;20430;-68
2022/11/20 08:00:32;;;;;;;22.70;17.90;;;6.10;92.60;;;;;;5075925;28;20482;-67
2022/11/20 08:02:59;;;;;;;25.80;19.47;;;6.10;92.50;;;;;;5075509;28;20881;-67
2022/11/20 08:05:26;;;;;;;23.67;19.13;;;6.10;92.60;;;;;;5075866;28;20860;-67
2022/11/20 08:07:54;;;;;;;23.20;19.63;;;6.10;92.50;;;;;;5075807;28;20445;-68
2022/11/20 08:10:21;;;;;;;26.10;20.17;;;6.20;92.60;;;;;;5075631;28;20457;-68
2022/11/20 08:15:34;;;;;;;26.20;19.70;;;6.20;92.30;;;;;;5075375;28;20412;-68
2022/11/20 08:18:02;;;;;;;21.70;18.97;;;6.30;92.40;;;;;;5075712;28;20436;-68
2022/11/20 08:20:29;;;;;;;26.33;20.00;;;6.30;92.30;;;;;;5075226;28;20447;-68
2022/11/20 08:23:00;;;;;;;23.83;19.90;;;6.30;92.30;;;;;;5075315;28;20817;-68
2022/11/20 08:25:27;;;;;;;22.00;17.10;;;6.30;92.20;;;;;;5075339;28;20438;-68
2022/11/20 08:27:54;;;;;;;24.07;19.33;;;6.40;92.20;;;;;;5075300;28;20455;-69
2022/11/20 08:30:21;;;;;;;24.93;18.17;;;6.40;92.10;;;;;;5074945;28;20961;-68
2022/11/20 08:32:48;;;;;;;26.33;18.73;;;6.40;92.20;;;;;;5075085;28;20483;-67
2022/11/20 08:35:14;;;;;;;35.10;23.37;;;6.40;92.40;;;;;;5075075;28;20443;-68
2022/11/20 08:37:42;;;;;;;30.40;21.30;;;6.50;92.60;;;;;;5074660;28;20581;-68
2022/11/20 08:40:12;;;;;;;30.23;20.77;;;6.50;92.60;;;;;;5074840;28;20480;-68
2022/11/20 08:42:47;;;;;;;21.13;17.20;;;6.60;92.70;;;;;;5075790;28;20482;-68
2022/11/20 08:45:14;;;;;;;26.03;18.43;;;6.60;92.70;;;;;;5074970;28;20431;-68
2022/11/20 08:47:41;;;;;;;22.80;17.80;;;6.60;92.70;;;;;;5074931;28;20518;-68
2022/11/20 08:50:09;;;;;;;23.97;18.90;;;6.70;92.80;;;;;;5074771;28;20481;-68
2022/11/20 08:52:35;;;;;;;22.73;17.83;;;6.80;92.90;;;;;;5074459;28;20478;-68
2022/11/20 08:55:02;;;;;;;22.00;16.90;;;6.90;93.00;;;;;;5074715;28;20456;-68
2022/11/20 08:57:32;;;;;;;24.47;18.27;;;7.00;93.00;;;;;;5074584;28;20448;-67
2022/11/20 08:59:59;;;;;;;26.97;19.10;;;7.00;93.00;;;;;;5074846;28;20428;-67
2022/11/20 09:02:26;;;;;;;27.10;21.30;;;7.10;93.00;;;;;;5074396;28;20535;-67
2022/11/20 09:04:54;;;;;;;27.73;19.67;;;7.10;93.00;;;;;;5074616;28;20441;-67
2022/11/20 09:07:21;;;;;;;28.70;19.40;;;7.20;93.10;;;;;;5074714;28;20472;-67
2022/11/20 09:09:47;;;;;;;28.07;19.27;;;7.20;93.10;;;;;;5076889;28;20424;-67
2022/11/20 09:12:14;;;;;;;30.43;20.27;;;7.10;93.20;;;;;;5076402;28;20464;-67
2022/11/20 09:14:42;;;;;;;27.83;19.00;;;7.10;93.30;;;;;;5075707;28;20822;-67
2022/11/20 09:17:13;;;;;;;32.50;21.83;;;7.20;93.60;;;;;;5075849;28;20455;-67
2022/11/20 09:19:40;;;;;;;38.30;23.03;;;7.20;93.40;;;;;;5075323;28;20968;-69
2022/11/20 09:22:07;;;;;;;36.30;22.50;;;7.30;93.70;;;;;;5074882;28;21080;-68
2022/11/20 09:24:34;;;;;;;38.37;24.10;;;7.40;94.00;;;;;;5074885;28;20434;-68
2022/11/20 09:27:03;;;;;;;39.23;24.80;;;7.50;94.00;;;;;;5074650;28;20469;-68
2022/11/20 09:29:30;;;;;;;37.67;24.17;;;7.60;93.80;;;;;;5074586;28;20433;-68
2022/11/20 09:31:58;;;;;;;37.97;22.27;;;7.60;93.50;;;;;;5074050;28;20459;-68
2022/11/20 09:34:25;;;;;;;40.57;24.50;;;7.70;93.30;;;;;;5074596;28;20432;-68
2022/11/20 09:36:52;;;;;;;32.90;21.47;;;7.70;93.00;;;;;;5074304;28;20463;-68
2022/11/20 09:39:18;;;;;;;38.17;22.83;;;7.70;92.90;;;;;;5074022;28;20806;-68
2022/11/20 09:42:09;;;;;;;38.80;21.53;;;7.60;92.90;;;;;;5074382;28;20480;-68
2022/11/20 09:44:52;;;;;;;36.57;22.33;;;7.70;92.90;;;;;;5074081;28;20439;-68
2022/11/20 09:47:33;;;;;;;36.53;21.07;;;7.60;92.90;;;;;;5073615;28;20927;-68
2022/11/20 09:50:16;;;;;;;37.43;21.33;;;7.50;93.00;;;;;;5074025;28;20425;-68
2022/11/20 09:52:55;;;;;;;31.93;20.97;;;7.50;93.20;;;;;;5073852;28;20478;-68
2022/11/20 09:55:22;;;;;;;32.30;20.53;;;7.60;93.20;;;;;;5073699;28;20436;-68
2022/11/20 09:57:53;;;;;;;27.17;18.10;;;7.60;92.80;;;;;;5073390;28;20436;-68
2022/11/20 10:00:21;;;;;;;27.03;17.60;;;7.70;92.90;;;;;;5073701;28;20516;-68
2022/11/20 10:02:54;;;;;;;28.60;19.57;;;7.80;92.80;;;;;;5073579;28;20561;-68
2022/11/20 10:05:27;;;;;;;30.90;18.57;;;7.80;92.70;;;;;;5073709;28;20436;-68
2022/11/20 10:08:13;;;;;;;30.13;19.43;;;7.90;92.40;;;;;;5073819;28;20437;-68
2022/11/20 10:10:44;;;;;;;28.90;18.37;;;7.90;92.30;;;;;;5073560;28;20464;-68
2022/11/20 10:13:23;;;;;;;30.13;18.70;;;8.00;92.30;;;;;;5073522;28;20466;-69
2022/11/20 10:15:58;;;;;;;30.47;19.13;;;8.10;92.30;;;;;;5074185;28;20519;-68
2022/11/20 10:18:43;;;;;;;34.07;19.20;;;8.10;91.90;;;;;;5073275;28;20803;-68
2022/11/20 10:21:19;;;;;;;30.00;18.93;;;8.20;91.80;;;;;;5073415;28;20478;-68
2022/11/20 10:24:04;;;;;;;28.57;18.17;;;8.20;91.60;;;;;;5073570;28;20469;-68
2022/11/20 10:26:41;;;;;;;26.40;17.90;;;8.30;91.40;;;;;;5073265;28;20436;-68
2022/11/20 10:29:13;;;;;;;29.70;17.60;;;8.30;91.40;;;;;;5073573;28;20450;-68
2022/11/20 10:31:42;;;;;;;25.13;17.27;;;8.30;91.40;;;;;;5074668;28;20452;-68
2022/11/20 10:34:21;;;;;;;26.60;17.67;;;8.40;91.30;;;;;;5073072;28;20477;-68
2022/11/20 10:36:53;;;;;;;26.57;18.20;;;8.50;91.60;;;;;;5073364;28;20473;-68
2022/11/20 10:39:27;;;;;;;20.07;15.83;;;8.60;91.40;;;;;;5073506;28;20430;-68
2022/11/20 10:41:54;;;;;;;26.90;18.27;;;8.70;91.00;;;;;;5074307;28;20474;-68
2022/11/20 10:47:14;;;;;;;30.63;18.63;;;8.80;90.60;;;;;;5073322;28;20410;-68
2022/11/20 10:49:44;;;;;;;31.57;18.77;;;8.80;90.80;;;;;;5073409;28;20461;-68
2022/11/20 10:52:19;;;;;;;29.70;17.70;;;8.80;90.30;;;;;;5072779;28;21099;-68
2022/11/20 10:54:55;;;;;;;25.27;16.93;;;8.80;90.20;;;;;;5072679;28;20440;-68
2022/11/20 10:57:36;;;;;;;31.43;17.90;;;8.70;90.20;;;;;;5073303;28;20432;-68
2022/11/20 11:00:06;;;;;;;26.40;18.40;;;8.60;90.40;;;;;;5072733;28;20906;-68
2022/11/20 11:02:36;;;;;;;25.20;17.10;;;8.60;90.30;;;;;;5072956;28;20498;-68
2022/11/20 11:05:15;;;;;;;28.53;17.93;;;8.50;90.40;;;;;;5073342;28;20453;-68
2022/11/20 11:07:42;;;;;;;34.27;17.77;;;8.50;90.50;;;;;;5073022;28;20448;-68
2022/11/20 11:10:17;;;;;;;25.17;17.70;;;8.40;90.70;;;;;;5072940;28;20458;-68
2022/11/20 11:12:46;;;;;;;28.10;17.87;;;8.40;90.90;;;;;;5073240;28;20558;-70
2022/11/20 11:15:16;;;;;;;23.07;16.37;;;8.40;91.00;;;;;;5073172;28;20502;-68
2022/11/20 11:17:48;;;;;;;27.63;17.17;;;8.30;91.00;;;;;;5072981;28;20445;-72
2022/11/20 11:20:21;;;;;;;25.30;17.50;;;8.30;91.20;;;;;;5074319;28;20494;-68
2022/11/20 11:22:49;;;;;;;29.90;17.40;;;8.30;91.40;;;;;;5072985;28;20493;-68
2022/11/20 11:25:35;;;;;;;24.97;18.73;;;8.30;91.30;;;;;;5075227;28;20778;-68
2022/11/20 11:28:04;;;;;;;28.73;18.20;;;8.20;91.10;;;;;;5077386;28;20435;-68
2022/11/20 11:30:42;;;;;;;25.50;17.70;;;8.10;91.30;;;;;;5076130;28;20440;-68
2022/11/20 11:33:11;;;;;;;24.00;17.40;;;8.10;91.50;;;;;;5076790;28;20485;-68
2022/11/20 11:35:46;;;;;;;24.03;17.80;;;8.10;91.60;;;;;;5076401;28;20452;-68
2022/11/20 11:38:17;;;;;;;27.67;16.90;;;8.20;91.70;;;;;;5076071;28;20462;-68
2022/11/20 11:40:45;;;;;;;26.77;17.90;;;8.20;91.60;;;;;;5076424;28;20429;-68
2022/11/20 11:46:27;;;;;;;25.07;17.53;;;8.30;92.00;;;;;;5075928;28;20426;-68
2022/11/20 11:49:16;;;;;;;25.90;18.00;;;8.40;92.00;;;;;;5077017;28;20441;-68
2022/11/20 11:51:54;;;;;;;24.60;16.60;;;8.40;91.90;;;;;;5075776;28;20967;-68
2022/11/20 11:54:25;;;;;;;25.27;17.50;;;8.40;91.50;;;;;;5076126;28;20429;-68
2022/11/20 11:56:53;;;;;;;23.37;16.00;;;8.30;91.50;;;;;;5076220;28;20434;-68
2022/11/20 11:59:27;;;;;;;22.50;16.47;;;8.30;91.60;;;;;;5076104;28;20445;-69
2022/11/20 12:01:57;;;;;;;23.23;16.57;;;8.30;91.70;;;;;;5075876;28;20854;-68
2022/11/20 12:04:41;;;;;;;26.53;17.70;;;8.30;91.80;;;;;;5076206;28;20434;-68
2022/11/20 12:07:16;;;;;;;22.73;15.77;;;8.20;91.80;;;;;;5076015;28;20438;-68
2022/11/20 12:09:50;;;;;;;25.53;17.30;;;8.30;91.70;;;;;;5076173;28;20435;-68
2022/11/20 12:12:20;;;;;;;24.00;17.70;;;8.20;91.70;;;;;;5075850;28;20468;-68
2022/11/20 12:14:52;;;;;;;22.53;16.10;;;8.20;91.80;;;;;;5075582;28;20449;-67
2022/11/20 12:17:19;;;;;;;26.43;17.00;;;8.10;92.40;;;;;;5077560;28;20437;-67
2022/11/20 12:19:46;;;;;;;26.03;18.10;;;8.10;92.30;;;;;;5077011;28;20443;-68
2022/11/20 12:22:22;;;;;;;28.00;18.57;;;8.10;92.50;;;;;;5075880;28;20491;-68
2022/11/20 12:24:58;;;;;;;25.43;18.30;;;8.10;92.60;;;;;;5075802;28;20433;-67
2022/11/20 12:27:45;;;;;;;28.07;17.67;;;8.10;93.10;;;;;;5075825;28;20429;-68
2022/11/20 12:30:14;;;;;;;26.90;18.30;;;8.10;93.40;;;;;;5075617;28;20858;-68
2022/11/20 12:33:04;;;;;;;25.93;19.10;;;8.10;93.10;;;;;;5075318;28;20469;-67
2022/11/20 12:35:45;;;;;;;31.07;20.70;;;8.20;93.30;;;;;;5075411;28;20432;-67
2022/11/20 12:39:00;;;;;;;24.30;18.43;;;8.30;93.00;;;;;;5075652;28;20458;-67
2022/11/20 12:45:11;;;;;;;26.90;17.67;;;8.40;93.20;;;;;;5075484;28;20410;-68
2022/11/20 12:48:01;;;;;;;27.23;19.97;;;8.40;93.30;;;;;;5075047;28;20564;-68
2022/11/20 12:50:38;;;;;;;30.97;18.77;;;8.40;93.50;;;;;;5075209;28;20417;-68
2022/11/20 12:53:11;;;;;;;25.67;17.50;;;8.50;93.60;;;;;;5074938;28;20453;-68
2022/11/20 12:55:48;;;;;;;27.53;20.13;;;8.50;93.80;;;;;;5074955;28;20432;-68
2022/11/20 12:58:20;;;;;;;24.03;16.17;;;8.50;94.00;;;;;;5074871;28;20433;-68